createdAt,value
2023-03-29T00:01:52.971Z,97.22
2023-03-29T00:04:22.832Z,98.03
2023-03-29T00:06:50.502Z,98.67
2023-03-29T00:09:18.148Z,98.03
2023-03-29T00:11:45.953Z,97.55
2023-03-29T00:14:13.603Z,97.90
2023-03-29T00:16:41.307Z,97.42
2023-03-29T00:19:08.905Z,97.78
2023-03-29T00:21:37.802Z,98.06
2023-03-29T00:24:05.627Z,98.85
2023-03-29T00:26:33.169Z,98.70
2023-03-29T00:29:00.839Z,98.40
2023-03-29T00:31:28.603Z,97.01
2023-03-29T00:33:56.733Z,96.47
2023-03-29T00:36:24.409Z,98.92
2023-03-29T00:38:53.267Z,98.71
2023-03-29T00:41:21.525Z,98.03
2023-03-29T00:43:53.802Z,98.49
2023-03-29T00:46:21.372Z,97.13
2023-03-29T00:48:49.588Z,96.75
2023-03-29T00:51:19.988Z,95.80
2023-03-29T00:53:51.276Z,97.35
2023-03-29T00:56:24.188Z,99.02
2023-03-29T00:58:58.400Z,97.96
2023-03-29T01:01:33.946Z,97.48
2023-03-29T01:04:08.296Z,97.95
2023-03-29T01:06:39.501Z,98.23
2023-03-29T01:09:13.613Z,99.09
2023-03-29T01:11:47.017Z,98.78
2023-03-29T01:14:20.728Z,98.79
2023-03-29T01:16:48.729Z,99.26
2023-03-29T01:19:21.287Z,99.99
2023-03-29T01:21:53.617Z,100.00
2023-03-29T01:24:41.908Z,99.91
2023-03-29T01:27:18.006Z,99.65
2023-03-29T01:29:50.333Z,99.79
2023-03-29T01:32:23.126Z,99.40
2023-03-29T01:34:56.445Z,100.00
2023-03-29T01:37:29.990Z,100.00
2023-03-29T01:39:57.632Z,100.00
2023-03-29T01:42:35.646Z,99.80
2023-03-29T01:45:14.176Z,100.00
2023-03-29T01:47:47.991Z,99.79
2023-03-29T01:50:20.238Z,99.21
2023-03-29T01:52:55.145Z,100.00
2023-03-29T01:55:26.828Z,99.81
2023-03-29T01:57:57.215Z,99.30
2023-03-29T02:00:29.473Z,100.00
2023-03-29T02:03:04.388Z,100.00
2023-03-29T02:05:32.641Z,100.00
2023-03-29T02:08:02.481Z,100.00
2023-03-29T02:10:33.288Z,100.00
2023-03-29T02:13:01.341Z,100.00
2023-03-29T02:15:30.369Z,100.00
2023-03-29T02:17:58.079Z,100.00
2023-03-29T02:20:31.485Z,100.00
2023-03-29T02:23:05.786Z,100.00
2023-03-29T02:25:33.545Z,100.00
2023-03-29T02:28:02.116Z,100.00
2023-03-29T02:30:39.274Z,100.00
2023-03-29T02:33:11.825Z,100.00
2023-03-29T02:35:46.079Z,100.00
2023-03-29T02:38:14.595Z,100.00
2023-03-29T02:40:43.798Z,100.00
2023-03-29T02:43:13.790Z,100.00
2023-03-29T02:45:44.408Z,100.00
2023-03-29T02:48:19.046Z,100.00
2023-03-29T02:50:50.871Z,100.00
2023-03-29T02:53:24.052Z,100.00
2023-03-29T02:55:52.802Z,100.00
2023-03-29T02:58:28.582Z,100.00
2023-03-29T03:01:01.726Z,99.92
2023-03-29T03:03:29.909Z,99.84
2023-03-29T03:06:01.516Z,99.51
2023-03-29T03:08:30.880Z,99.42
2023-03-29T03:10:59.603Z,97.89
2023-03-29T03:13:27.424Z,98.14
2023-03-29T03:15:55.039Z,98.16
2023-03-29T03:18:24.035Z,97.67
2023-03-29T03:20:59.126Z,97.90
2023-03-29T03:23:26.830Z,96.81
2023-03-29T03:25:55.130Z,97.30
2023-03-29T03:28:24.151Z,97.41
2023-03-29T03:30:51.708Z,95.89
2023-03-29T03:33:39.337Z,96.47
2023-03-29T03:36:36.166Z,95.26
2023-03-29T03:39:06.872Z,94.92
2023-03-29T03:41:35.671Z,95.58
2023-03-29T03:44:04.307Z,94.75
2023-03-29T03:46:32.358Z,94.44
2023-03-29T03:49:04.494Z,93.16
2023-03-29T03:51:41.828Z,93.11
2023-03-29T03:54:10.090Z,94.11
2023-03-29T03:56:38.072Z,92.75
2023-03-29T03:59:12.786Z,92.07
2023-03-29T04:02:03.946Z,92.81
2023-03-29T04:04:34.223Z,92.18
2023-03-29T04:07:20.573Z,92.03
2023-03-29T04:10:17.161Z,91.67
2023-03-29T04:12:51.840Z,91.65
2023-03-29T04:15:21.546Z,91.51
2023-03-29T04:17:57.395Z,91.33
2023-03-29T04:20:35.855Z,90.77
2023-03-29T04:23:03.611Z,90.73
2023-03-29T04:25:32.305Z,90.92
2023-03-29T04:28:00.815Z,90.76
2023-03-29T04:30:41.090Z,91.00
2023-03-29T04:33:19.889Z,90.46
2023-03-29T04:35:55.300Z,90.89
2023-03-29T04:38:23.673Z,90.88
2023-03-29T04:40:54.879Z,90.72
2023-03-29T04:43:41.252Z,90.93
2023-03-29T04:46:17.645Z,89.99
2023-03-29T04:49:07.981Z,90.62
2023-03-29T04:51:41.057Z,90.37
2023-03-29T04:54:09.622Z,90.12
2023-03-29T04:56:56.645Z,90.35
2023-03-29T04:59:44.575Z,89.37
2023-03-29T05:02:50.373Z,90.78
2023-03-29T05:05:18.326Z,90.63
2023-03-29T05:07:49.595Z,90.09
2023-03-29T05:10:21.781Z,90.91
2023-03-29T05:12:53.851Z,90.62
2023-03-29T05:15:22.947Z,91.79
2023-03-29T05:17:50.770Z,91.35
2023-03-29T05:20:18.740Z,89.58
2023-03-29T05:22:49.526Z,89.24
2023-03-29T05:25:40.473Z,89.80
2023-03-29T05:28:08.523Z,90.10
2023-03-29T05:30:36.228Z,90.52
2023-03-29T05:33:22.423Z,90.75
2023-03-29T05:35:50.040Z,91.92
2023-03-29T05:38:19.066Z,91.46
2023-03-29T05:40:46.748Z,91.80
2023-03-29T05:43:39.405Z,92.22
2023-03-29T05:46:07.638Z,91.89
2023-03-29T05:48:37.461Z,92.10
2023-03-29T05:51:06.206Z,92.37
2023-03-29T05:53:35.265Z,92.46
2023-03-29T05:56:03.911Z,92.50
2023-03-29T05:58:31.622Z,92.74
2023-03-29T06:01:00.700Z,93.43
2023-03-29T06:03:53.419Z,93.32
2023-03-29T06:06:24.688Z,93.64
2023-03-29T06:08:53.969Z,94.03
2023-03-29T06:11:31.538Z,94.27
2023-03-29T06:14:23.241Z,94.05
2023-03-29T06:16:56.560Z,94.06
2023-03-29T06:19:24.511Z,94.39
2023-03-29T06:21:53.143Z,94.17
2023-03-29T06:24:26.912Z,93.74
2023-03-29T06:27:01.595Z,94.38
2023-03-29T06:29:30.911Z,93.85
2023-03-29T06:31:58.764Z,93.15
2023-03-29T06:34:46.645Z,93.79
2023-03-29T06:37:26.276Z,93.41
2023-03-29T06:40:07.300Z,93.61
2023-03-29T06:42:44.610Z,93.73
2023-03-29T06:45:33.949Z,93.97
2023-03-29T06:48:05.856Z,93.74
2023-03-29T06:50:33.493Z,93.69
2023-03-29T06:53:20.518Z,93.95
2023-03-29T06:55:56.937Z,92.74
2023-03-29T06:58:41.781Z,92.47
2023-03-29T07:01:28.838Z,93.40
2023-03-29T07:04:08.138Z,94.06
2023-03-29T07:06:51.171Z,93.08
2023-03-29T07:09:20.416Z,93.35
2023-03-29T07:12:09.898Z,93.28
2023-03-29T07:14:37.646Z,92.81
2023-03-29T07:17:05.732Z,93.05
2023-03-29T07:19:35.020Z,92.49
2023-03-29T07:22:09.795Z,92.95
2023-03-29T07:24:54.431Z,92.38
2023-03-29T07:27:23.609Z,92.25
2023-03-29T07:29:51.346Z,90.91
2023-03-29T07:32:19.986Z,91.92
2023-03-29T07:34:58.398Z,91.64
2023-03-29T07:37:32.394Z,92.06
2023-03-29T07:40:00.989Z,92.56
2023-03-29T07:42:30.141Z,91.83
2023-03-29T07:44:58.438Z,91.74
2023-03-29T07:47:30.541Z,91.24
2023-03-29T07:49:59.392Z,92.39
2023-03-29T07:52:29.861Z,92.15
2023-03-29T07:54:57.979Z,90.49
2023-03-29T07:57:33.925Z,90.93
2023-03-29T08:00:10.681Z,90.53
2023-03-29T08:02:41.998Z,91.04
2023-03-29T08:05:12.661Z,90.64
2023-03-29T08:07:50.393Z,90.86
2023-03-29T08:10:47.453Z,90.04
2023-03-29T08:13:37.261Z,90.84
2023-03-29T08:16:23.383Z,91.71
2023-03-29T08:19:03.276Z,91.20
2023-03-29T08:21:47.938Z,91.86
2023-03-29T08:24:17.230Z,91.49
2023-03-29T08:26:50.249Z,90.46
2023-03-29T08:29:22.249Z,90.40
2023-03-29T08:31:50.160Z,90.27
2023-03-29T08:34:17.905Z,90.34
2023-03-29T08:37:04.843Z,89.80
2023-03-29T08:39:39.137Z,89.64
2023-03-29T08:42:38.215Z,90.00
2023-03-29T08:45:15.566Z,89.86
2023-03-29T08:47:55.102Z,89.66
2023-03-29T08:50:31.612Z,89.29
2023-03-29T08:53:03.435Z,90.33
2023-03-29T08:55:59.105Z,90.25
2023-03-29T08:58:55.157Z,89.48
2023-03-29T09:01:26.341Z,89.98
2023-03-29T09:04:04.728Z,88.98
2023-03-29T09:06:57.773Z,89.32
2023-03-29T09:09:34.971Z,88.29
2023-03-29T09:12:24.025Z,88.49
2023-03-29T09:15:04.053Z,88.76
2023-03-29T09:17:41.522Z,88.48
2023-03-29T09:20:22.824Z,88.00
2023-03-29T09:23:03.525Z,87.62
2023-03-29T09:25:54.425Z,87.68
2023-03-29T09:28:36.984Z,88.02
2023-03-29T09:31:12.835Z,87.66
2023-03-29T09:33:47.696Z,87.38
2023-03-29T09:36:23.243Z,87.39
2023-03-29T09:38:54.464Z,87.25
2023-03-29T09:41:31.419Z,87.34
2023-03-29T09:44:07.339Z,87.22
2023-03-29T09:46:43.227Z,87.60
2023-03-29T09:49:17.621Z,87.08
2023-03-29T09:51:49.550Z,87.70
2023-03-29T09:54:18.770Z,87.25
2023-03-29T09:57:14.424Z,86.82
2023-03-29T09:59:42.614Z,86.33
2023-03-29T10:02:12.849Z,86.07
2023-03-29T10:04:43.097Z,86.40
2023-03-29T10:07:18.923Z,87.02
2023-03-29T10:09:53.394Z,86.94
2023-03-29T10:12:22.963Z,86.67
2023-03-29T10:14:54.247Z,86.17
2023-03-29T10:17:24.566Z,86.19
2023-03-29T10:19:57.695Z,85.99
2023-03-29T10:22:27.684Z,86.42
2023-03-29T10:24:57.885Z,86.63
2023-03-29T10:27:28.105Z,86.47
2023-03-29T10:29:57.550Z,86.74
2023-03-29T10:32:30.795Z,86.89
2023-03-29T10:35:09.233Z,86.63
2023-03-29T10:37:41.389Z,86.73
2023-03-29T10:40:21.782Z,86.61
2023-03-29T10:42:52.024Z,86.99
2023-03-29T10:45:21.421Z,87.38
2023-03-29T10:47:49.676Z,85.64
2023-03-29T10:50:18.724Z,86.66
2023-03-29T10:52:46.406Z,86.79
2023-03-29T10:55:14.930Z,86.00
2023-03-29T10:57:50.260Z,86.49
2023-03-29T11:00:24.841Z,85.45
2023-03-29T11:03:07.232Z,86.90
2023-03-29T11:05:43.701Z,85.35
2023-03-29T11:08:38.875Z,86.65
2023-03-29T11:11:20.702Z,86.10
2023-03-29T11:13:58.073Z,86.30
2023-03-29T11:16:34.745Z,86.72
2023-03-29T11:19:39.997Z,88.69
2023-03-29T11:22:14.648Z,88.36
2023-03-29T11:24:55.816Z,89.80
2023-03-29T11:27:34.269Z,89.50
2023-03-29T11:30:08.832Z,89.39
2023-03-29T11:32:48.986Z,89.10
2023-03-29T11:35:47.521Z,88.93
2023-03-29T11:38:24.377Z,90.22
2023-03-29T11:40:59.354Z,89.45
2023-03-29T11:43:32.239Z,90.11
2023-03-29T11:46:05.674Z,90.26
2023-03-29T11:48:39.522Z,90.68
2023-03-29T11:51:14.005Z,92.13
2023-03-29T11:53:51.224Z,93.88
2023-03-29T11:56:27.641Z,94.66
2023-03-29T11:59:01.389Z,96.65
2023-03-29T12:01:34.279Z,97.42
2023-03-29T12:04:06.623Z,97.49
2023-03-29T12:06:42.290Z,96.31
2023-03-29T12:09:24.153Z,95.28
2023-03-29T12:11:57.416Z,94.94
2023-03-29T12:14:29.209Z,94.11
2023-03-29T12:17:01.948Z,94.66
2023-03-29T12:19:32.652Z,93.94
2023-03-29T12:22:01.301Z,93.33
2023-03-29T12:24:34.367Z,92.25
2023-03-29T12:27:20.249Z,91.55
2023-03-29T12:30:07.386Z,91.47
2023-03-29T12:32:49.234Z,91.04
2023-03-29T12:35:42.764Z,91.70
2023-03-29T12:38:31.153Z,91.28
2023-03-29T12:41:41.505Z,91.10
2023-03-29T12:44:27.822Z,90.79
2023-03-29T12:47:20.299Z,90.23
2023-03-29T12:49:48.644Z,91.33
2023-03-29T12:52:27.398Z,91.10
2023-03-29T12:54:57.223Z,89.96
2023-03-29T12:57:39.419Z,90.29
2023-03-29T13:00:21.966Z,90.52
2023-03-29T13:03:01.831Z,89.69
2023-03-29T13:05:33.489Z,88.34
2023-03-29T13:08:12.359Z,89.46
2023-03-29T13:10:42.425Z,89.26
2023-03-29T13:13:18.068Z,89.03
2023-03-29T13:15:46.504Z,90.07
2023-03-29T13:18:34.465Z,89.94
2023-03-29T13:21:15.018Z,90.35
2023-03-29T13:23:54.166Z,90.22
2023-03-29T13:26:38.169Z,90.50
2023-03-29T13:29:22.343Z,88.94
2023-03-29T13:32:00.894Z,91.17
2023-03-29T13:34:39.975Z,90.76
2023-03-29T13:37:23.873Z,91.17
2023-03-29T13:39:53.661Z,90.26
2023-03-29T13:42:25.318Z,88.78
2023-03-29T13:45:05.857Z,89.52
2023-03-29T13:47:48.930Z,89.41
2023-03-29T13:50:36.342Z,88.51
2023-03-29T13:53:11.586Z,88.36
2023-03-29T13:55:46.540Z,88.64
2023-03-29T13:58:21.620Z,87.80
2023-03-29T14:00:54.206Z,86.44
2023-03-29T14:03:29.539Z,86.40
2023-03-29T14:05:59.995Z,86.07
2023-03-29T14:08:32.008Z,85.22
2023-03-29T14:11:03.288Z,85.35
2023-03-29T14:13:31.771Z,86.34
2023-03-29T14:16:04.252Z,87.07
2023-03-29T14:18:35.758Z,87.58
2023-03-29T14:21:03.891Z,86.91
2023-03-29T14:23:33.734Z,85.71
2023-03-29T14:26:09.081Z,85.86
2023-03-29T14:28:36.734Z,85.91
2023-03-29T14:31:07.780Z,87.26
2023-03-29T14:33:37.191Z,87.84
2023-03-29T14:36:06.356Z,88.45
2023-03-29T14:38:37.472Z,88.02
2023-03-29T14:41:06.301Z,86.91
2023-03-29T14:43:34.073Z,87.79
2023-03-29T14:46:06.804Z,90.34
2023-03-29T14:48:35.633Z,90.29
2023-03-29T14:51:04.045Z,91.06
2023-03-29T14:53:34.220Z,92.16
2023-03-29T14:56:02.426Z,91.55
2023-03-29T14:58:34.141Z,93.72
2023-03-29T15:01:08.051Z,93.88
2023-03-29T15:03:43.772Z,94.64
2023-03-29T15:06:14.399Z,94.07
2023-03-29T15:08:54.139Z,95.10
2023-03-29T15:11:30.728Z,95.09
2023-03-29T15:14:02.554Z,95.81
2023-03-29T15:16:32.664Z,95.81
2023-03-29T15:19:02.793Z,95.74
2023-03-29T15:21:34.039Z,95.74
2023-03-29T15:24:03.872Z,95.17
2023-03-29T15:26:33.623Z,94.84
2023-03-29T15:29:08.830Z,94.95
2023-03-29T15:31:39.610Z,94.64
2023-03-29T15:34:09.758Z,94.38
2023-03-29T15:36:42.084Z,94.46
2023-03-29T15:39:13.070Z,94.37
2023-03-29T15:41:40.992Z,95.39
2023-03-29T15:44:08.990Z,95.16
2023-03-29T15:46:38.180Z,94.52
2023-03-29T15:49:05.868Z,94.95
2023-03-29T15:51:33.457Z,95.04
2023-03-29T15:54:01.001Z,94.37
2023-03-29T15:56:28.546Z,95.42
2023-03-29T15:58:56.144Z,95.12
2023-03-29T16:01:33.594Z,94.79
2023-03-29T16:04:03.514Z,95.22
2023-03-29T16:06:31.214Z,95.36
2023-03-29T16:08:58.987Z,95.56
2023-03-29T16:11:26.903Z,95.93
2023-03-29T16:13:56.114Z,96.18
2023-03-29T16:16:23.815Z,96.63
2023-03-29T16:18:51.476Z,96.20
2023-03-29T16:21:23.352Z,96.84
2023-03-29T16:23:51.279Z,96.79
2023-03-29T16:26:18.854Z,96.72
2023-03-29T16:28:46.383Z,97.34
2023-03-29T16:31:14.945Z,97.67
2023-03-29T16:33:42.587Z,97.32
2023-03-29T16:36:11.586Z,97.60
2023-03-29T16:38:40.674Z,97.70
2023-03-29T16:41:08.566Z,97.45
2023-03-29T16:43:38.549Z,97.94
2023-03-29T16:46:08.505Z,97.73
2023-03-29T16:48:36.100Z,97.28
2023-03-29T16:51:03.930Z,97.56
2023-03-29T16:53:31.625Z,97.46
2023-03-29T16:56:00.770Z,97.33
2023-03-29T16:58:28.433Z,97.28
2023-03-29T17:00:56.861Z,97.23
2023-03-29T17:03:25.581Z,97.40
2023-03-29T17:05:54.699Z,97.39
2023-03-29T17:08:22.737Z,97.72
2023-03-29T17:10:53.067Z,97.54
2023-03-29T17:13:23.732Z,97.48
2023-03-29T17:15:52.784Z,97.61
2023-03-29T17:18:20.516Z,97.62
2023-03-29T17:20:48.247Z,97.22
2023-03-29T17:23:15.808Z,97.48
2023-03-29T17:25:43.611Z,97.53
2023-03-29T17:28:11.390Z,97.55
2023-03-29T17:30:40.680Z,97.78
2023-03-29T17:33:08.412Z,97.70
2023-03-29T17:35:36.064Z,97.73
2023-03-29T17:38:04.315Z,97.82
2023-03-29T17:40:31.854Z,97.66
2023-03-29T17:42:59.353Z,98.14
2023-03-29T17:45:27.148Z,97.58
2023-03-29T17:47:56.270Z,98.21
2023-03-29T17:50:23.936Z,97.76
2023-03-29T17:52:51.483Z,97.93
2023-03-29T17:55:20.900Z,97.88
2023-03-29T17:57:49.700Z,97.79
2023-03-29T18:00:18.014Z,97.94
2023-03-29T18:02:45.872Z,98.35
2023-03-29T18:05:14.932Z,98.23
2023-03-29T18:07:42.520Z,98.58
2023-03-29T18:10:11.210Z,98.30
2023-03-29T18:12:38.813Z,98.67
2023-03-29T18:15:07.812Z,98.90
2023-03-29T18:17:36.451Z,98.98
2023-03-29T18:20:10.904Z,98.81
2023-03-29T18:22:41.203Z,99.00
2023-03-29T18:25:10.007Z,99.05
2023-03-29T18:27:37.881Z,99.01
2023-03-29T18:30:07.376Z,99.44
2023-03-29T18:32:35.005Z,99.39
2023-03-29T18:35:03.098Z,99.61
2023-03-29T18:37:30.946Z,99.42
2023-03-29T18:40:00.053Z,99.94
2023-03-29T18:42:27.717Z,99.96
2023-03-29T18:44:55.259Z,99.97
2023-03-29T18:47:22.819Z,100.00
2023-03-29T18:49:50.329Z,100.00
2023-03-29T18:52:17.957Z,100.00
2023-03-29T18:54:45.458Z,100.00
2023-03-29T18:57:14.409Z,100.00
2023-03-29T18:59:41.943Z,100.00
2023-03-29T19:02:11.003Z,100.00
2023-03-29T19:04:38.551Z,100.00
2023-03-29T19:07:06.709Z,100.00
2023-03-29T19:09:34.217Z,100.00
2023-03-29T19:12:01.737Z,100.00
2023-03-29T19:14:30.973Z,100.00
2023-03-29T19:16:58.533Z,100.00
2023-03-29T19:19:27.075Z,100.00
2023-03-29T19:21:55.537Z,100.00
2023-03-29T19:24:24.366Z,100.00
2023-03-29T19:26:52.635Z,100.00
2023-03-29T19:29:20.527Z,100.00
2023-03-29T19:31:51.754Z,100.00
2023-03-29T19:34:22.756Z,100.00
2023-03-29T19:36:50.443Z,100.00
2023-03-29T19:39:18.076Z,100.00
2023-03-29T19:41:45.728Z,100.00
2023-03-29T19:44:13.666Z,100.00
2023-03-29T19:46:41.762Z,100.00
2023-03-29T19:49:13.381Z,100.00
2023-03-29T19:51:40.985Z,100.00
2023-03-29T19:54:08.641Z,100.00
2023-03-29T19:56:36.230Z,100.00
2023-03-29T19:59:03.797Z,100.00
2023-03-29T20:03:59.964Z,100.00
2023-03-29T20:06:28.894Z,100.00
2023-03-29T20:08:56.472Z,100.00
2023-03-29T20:11:24.545Z,100.00
2023-03-29T20:13:52.188Z,100.00
2023-03-29T20:16:24.176Z,100.00
2023-03-29T20:18:53.864Z,100.00
2023-03-29T20:21:21.472Z,100.00
2023-03-29T20:23:50.349Z,100.00
2023-03-29T20:26:18.100Z,100.00
2023-03-29T20:28:46.083Z,100.00
2023-03-29T20:31:13.756Z,100.00
2023-03-29T20:33:44.243Z,100.00
2023-03-29T20:36:12.717Z,100.00
2023-03-29T20:38:40.540Z,100.00
2023-03-29T20:41:10.692Z,100.00
2023-03-29T20:43:38.305Z,100.00
2023-03-29T20:46:14.194Z,100.00
2023-03-29T20:48:45.721Z,100.00
2023-03-29T20:51:14.180Z,100.00
2023-03-29T20:53:44.345Z,100.00
2023-03-29T20:56:13.932Z,100.00
2023-03-29T20:58:42.057Z,100.00
2023-03-29T21:01:09.955Z,100.00
2023-03-29T21:03:37.944Z,100.00
2023-03-29T21:06:05.801Z,100.00
2023-03-29T21:08:33.510Z,100.00
2023-03-29T21:11:01.239Z,100.00
2023-03-29T21:13:33.769Z,100.00
2023-03-29T21:16:04.080Z,100.00
2023-03-29T21:18:31.628Z,100.00
2023-03-29T21:20:59.219Z,100.00
2023-03-29T21:23:26.913Z,100.00
2023-03-29T21:25:54.462Z,100.00
2023-03-29T21:28:22.057Z,100.00
2023-03-29T21:30:50.942Z,100.00
2023-03-29T21:33:18.501Z,100.00
2023-03-29T21:35:48.349Z,100.00
2023-03-29T21:38:16.668Z,100.00
2023-03-29T21:40:44.214Z,100.00
2023-03-29T21:43:11.759Z,100.00
2023-03-29T21:45:39.347Z,100.00
2023-03-29T21:48:08.383Z,100.00
2023-03-29T21:50:37.153Z,100.00
2023-03-29T21:53:04.751Z,100.00
2023-03-29T21:55:34.134Z,100.00
2023-03-29T21:58:01.749Z,100.00
2023-03-29T22:00:29.574Z,100.00
2023-03-29T22:02:57.369Z,100.00
2023-03-29T22:05:27.124Z,100.00
2023-03-29T22:08:00.074Z,100.00
2023-03-29T22:10:27.917Z,100.00
2023-03-29T22:12:56.057Z,100.00
2023-03-29T22:15:24.236Z,100.00
2023-03-29T22:17:53.185Z,100.00
2023-03-29T22:20:22.121Z,100.00
2023-03-29T22:22:51.965Z,100.00
2023-03-29T22:25:20.618Z,100.00
2023-03-29T22:27:49.500Z,100.00
2023-03-29T22:30:18.026Z,100.00
2023-03-29T22:32:45.690Z,100.00
2023-03-29T22:35:13.254Z,100.00
2023-03-29T22:37:42.467Z,100.00
2023-03-29T22:40:13.164Z,100.00
2023-03-29T22:42:40.891Z,100.00
2023-03-29T22:45:09.864Z,100.00
2023-03-29T22:47:37.441Z,100.00
2023-03-29T22:50:06.144Z,100.00
2023-03-29T22:52:33.773Z,100.00
2023-03-29T22:55:01.284Z,100.00
2023-03-29T22:57:30.137Z,100.00
2023-03-29T22:59:57.667Z,100.00
2023-03-29T23:02:25.395Z,100.00
2023-03-29T23:04:52.985Z,100.00
2023-03-29T23:07:20.694Z,100.00
2023-03-29T23:09:48.317Z,100.00
2023-03-29T23:12:15.880Z,100.00
2023-03-29T23:14:45.084Z,100.00
2023-03-29T23:17:13.366Z,100.00
2023-03-29T23:19:41.467Z,100.00
2023-03-29T23:22:09.053Z,100.00
2023-03-29T23:24:36.651Z,100.00
2023-03-29T23:27:05.418Z,100.00
2023-03-29T23:29:34.458Z,100.00
2023-03-29T23:32:03.530Z,100.00
2023-03-29T23:34:31.426Z,100.00
2023-03-29T23:36:59.031Z,100.00
2023-03-29T23:39:26.631Z,100.00
2023-03-29T23:41:54.293Z,100.00
2023-03-29T23:44:21.934Z,100.00
2023-03-29T23:46:49.551Z,100.00
2023-03-29T23:49:18.540Z,100.00
2023-03-29T23:51:48.212Z,100.00
2023-03-29T23:54:17.164Z,100.00
2023-03-29T23:56:44.854Z,100.00
2023-03-29T23:59:12.491Z,100.00
